Time;durP1;ratioP1;P1;durP2;ratioP2;P2;SDS_P1;SDS_P2;PMS_P1;PMS_P2;Temp;Humidity;BMP_temperature;BMP_pressure;BME280_temperature;BME280_humidity;BME280_pressure;Samples;Min_cycle;Max_cycle;Signal;HPM_P1;HPM_P2
2021/02/10 00:00:30;;;;;;;1.95;1.85;;;;;;;-5.48;80.58;95493.78;299395;226;63005;-59
2021/02/10 00:05:31;;;;;;;6.00;5.65;;;;;;;-5.56;80.49;95480.91;299395;216;63009;-60
2021/02/10 00:10:32;;;;;;;1.00;1.00;;;;;;;-5.68;82.96;95473.97;299395;222;63005;-59
2021/02/10 00:15:33;;;;;;;1.10;1.10;;;;;;;-5.60;82.21;95468.38;299395;474;63009;-61
2021/02/10 00:20:34;;;;;;;0.90;0.90;;;;;;;-5.75;82.97;95468.78;299395;590;63004;-60
2021/02/10 00:25:35;;;;;;;1.20;1.20;;;;;;;-5.56;82.50;95449.22;299395;222;63026;-60
2021/02/10 00:30:36;;;;;;;1.00;1.00;;;;;;;-5.65;81.44;95449.75;299395;520;63005;-59
2021/02/10 00:35:37;;;;;;;2.45;2.35;;;;;;;-5.72;82.64;95449.84;299395;820;63009;-59
2021/02/10 00:40:38;;;;;;;0.90;0.90;;;;;;;-5.74;82.15;95442.16;299395;208;63005;-60
2021/02/10 00:45:39;;;;;;;1.33;1.33;;;;;;;-5.56;81.70;95433.34;299395;787;63009;-61
2021/02/10 00:50:40;;;;;;;0.90;0.90;;;;;;;-5.79;82.94;95438.56;299395;233;63004;-60
2021/02/10 00:55:45;;;;;;;0.90;0.90;;;;;;;-5.81;83.28;95424.78;299395;444;63009;-58
2021/02/10 01:00:46;;;;;;;1.00;1.00;;;;;;;-5.75;82.74;95421.25;299395;649;63005;-61
2021/02/10 01:05:47;;;;;;;1.00;1.00;;;;;;;-5.80;82.03;95416.62;299395;824;63009;-60
2021/02/10 01:10:48;;;;;;;0.90;0.90;;;;;;;-5.84;83.30;95409.38;299395;216;63005;-61
2021/02/10 01:15:49;;;;;;;5.03;4.57;;;;;;;-5.55;80.86;95408.53;299395;346;63009;-60
2021/02/10 01:20:50;;;;;;;1.80;1.70;;;;;;;-5.43;79.95;95401.41;299395;690;63004;-60
2021/02/10 01:25:51;;;;;;;0.90;0.90;;;;;;;-6.00;82.94;95404.78;299395;202;63009;-61
2021/02/10 01:30:51;;;;;;;1.00;1.00;;;;;;;-5.82;82.66;95402.03;299395;566;63005;-59
2021/02/10 01:35:52;;;;;;;0.90;0.90;;;;;;;-5.84;83.37;95410.19;299395;198;63009;-58
2021/02/10 01:40:53;;;;;;;2.95;2.75;;;;;;;-5.52;81.09;95397.47;299395;203;63004;-60
2021/02/10 01:45:55;;;;;;;1.00;1.00;;;;;;;-5.49;80.97;95388.28;299395;197;63020;-61
2021/02/10 01:50:56;;;;;;;1.00;1.00;;;;;;;-5.98;83.15;95378.97;299395;225;63010;-61
2021/02/10 01:55:57;;;;;;;1.20;1.20;;;;;;;-5.46;81.23;95372.78;299395;238;63009;-59
2021/02/10 02:00:58;;;;;;;1.00;1.00;;;;;;;-5.65;81.18;95370.47;299395;439;63005;-59
2021/02/10 02:05:59;;;;;;;1.00;1.00;;;;;;;-5.76;82.88;95369.44;299395;231;63008;-60
2021/02/10 02:11:00;;;;;;;1.00;1.00;;;;;;;-5.76;83.65;95356.22;299395;216;63004;-60
2021/02/10 02:16:01;;;;;;;2.03;1.92;;;;;;;-5.52;80.91;95349.91;299395;280;63020;-60
2021/02/10 02:21:03;;;;;;;1.00;1.00;;;;;;;-5.82;83.54;95349.22;299395;227;63011;-61
2021/02/10 02:26:05;;;;;;;2.72;2.47;;;;;;;-5.50;81.13;95347.03;299395;218;63009;-59
2021/02/10 02:31:06;;;;;;;1.00;1.00;;;;;;;-6.12;83.29;95339.56;299395;558;63005;-57
2021/02/10 02:36:08;;;;;;;1.00;1.00;;;;;;;-5.87;83.39;95326.13;299395;667;63008;-61
2021/02/10 02:41:08;;;;;;;5.22;5.03;;;;;;;-5.89;82.42;95346.69;299395;258;63009;-59
2021/02/10 02:46:09;;;;;;;2.95;2.60;;;;;;;-5.61;81.85;95338.09;299396;358;63022;-56
2021/02/10 02:51:10;;;;;;;2.78;2.28;;;;;;;-5.88;83.69;95326.34;299396;696;63004;-60
2021/02/10 02:56:11;;;;;;;2.10;2.00;;;;;;;-5.77;82.75;95336.13;299396;830;63009;-60
2021/02/10 03:01:12;;;;;;;1.00;1.00;;;;;;;-6.25;84.53;95331.03;299396;792;63005;-59
2021/02/10 03:06:13;;;;;;;1.10;1.10;;;;;;;-6.15;83.83;95331.28;299396;197;63009;-61
2021/02/10 03:11:14;;;;;;;3.90;3.72;;;;;;;-5.88;83.28;95331.63;299396;199;63004;-60
2021/02/10 03:16:15;;;;;;;1.83;1.73;;;;;;;-6.10;85.80;95324.28;299396;271;63009;-61
2021/02/10 03:21:16;;;;;;;3.20;3.00;;;;;;;-5.75;83.79;95324.28;299396;210;63005;-58
2021/02/10 03:26:18;;;;;;;1.10;1.10;;;;;;;-5.83;83.60;95323.81;299397;417;63009;-60
2021/02/10 03:31:19;;;;;;;1.10;1.10;;;;;;;-5.90;84.86;95323.19;299397;197;63005;-60
2021/02/10 03:36:20;;;;;;;1.00;1.00;;;;;;;-5.85;84.11;95315.31;299396;227;63019;-60
2021/02/10 03:41:24;;;;;;;3.78;3.58;;;;;;;-5.89;83.77;95317.66;299396;757;63004;-60
2021/02/10 03:46:25;;;;;;;3.25;2.95;;;;;;;-6.03;84.14;95323.38;299418;365;63021;-60
2021/02/10 03:51:26;;;;;;;1.00;1.00;;;;;;;-6.09;84.65;95331.19;299396;352;63005;-59
2021/02/10 03:56:27;;;;;;;0.90;0.90;;;;;;;-6.35;84.29;95334.22;299396;680;63009;-60
2021/02/10 04:01:28;;;;;;;0.93;0.93;;;;;;;-6.11;84.29;95324.50;299396;585;63005;-60
2021/02/10 04:06:29;;;;;;;1.00;1.00;;;;;;;-6.16;84.94;95333.09;299396;199;63009;-58
2021/02/10 04:11:30;;;;;;;1.40;1.40;;;;;;;-5.99;84.74;95337.75;299396;219;63004;-58
2021/02/10 04:16:32;;;;;;;2.03;1.92;;;;;;;-5.96;83.35;95322.25;299396;470;63009;-59
2021/02/10 04:21:33;;;;;;;1.00;1.00;;;;;;;-6.35;84.50;95334.22;299395;248;64005;-60
2021/02/10 04:26:34;;;;;;;2.12;2.03;;;;;;;-6.19;84.85;95333.56;299397;520;63009;-59
2021/02/10 04:31:35;;;;;;;5.53;4.93;;;;;;;-6.16;84.79;95330.47;299395;312;63005;-60
2021/02/10 04:36:36;;;;;;;0.93;0.93;;;;;;;-6.25;85.23;95317.84;299395;825;63009;-57
2021/02/10 04:41:37;;;;;;;1.55;1.52;;;;;;;-6.31;85.73;95324.03;299395;248;63004;-60
2021/02/10 04:46:40;;;;;;;1.00;1.00;;;;;;;-6.24;84.36;95330.81;299395;196;63009;-59
2021/02/10 04:51:45;;;;;;;1.70;1.60;;;;;;;-6.26;85.66;95327.59;299395;226;63005;-60
2021/02/10 04:56:46;;;;;;;1.00;1.00;;;;;;;-6.58;84.37;95320.94;299395;744;63008;-59
2021/02/10 05:01:48;;;;;;;2.20;2.10;;;;;;;-6.61;85.57;95332.78;299395;219;63004;-59
2021/02/10 05:06:56;;;;;;;1.00;1.00;;;;;;;-6.36;83.81;95322.06;299395;480;63009;-59
2021/02/10 05:12:29;;;;;;;1.00;1.00;;;;;;;-6.46;84.65;95327.06;299395;651;63004;-58
2021/02/10 05:17:42;;;;;;;1.00;1.00;;;;;;;-6.47;84.69;95328.09;299395;950;63009;-58
2021/02/10 05:22:51;;;;;;;1.00;1.00;;;;;;;-6.70;83.84;95320.09;299395;624;63005;-58
2021/02/10 05:27:54;;;;;;;1.00;1.00;;;;;;;-6.50;84.49;95328.53;299395;214;63018;-58
2021/02/10 05:32:57;;;;;;;1.10;1.10;;;;;;;-6.64;84.02;95333.22;299395;477;63004;-59
2021/02/10 05:38:10;;;;;;;1.10;1.10;;;;;;;-6.71;84.15;95339.59;299395;197;63009;-60
2021/02/10 05:43:13;;;;;;;13.40;11.82;;;;;;;-6.39;83.83;95348.91;299385;693;65005;-57
2021/02/10 05:48:15;;;;;;;2.12;2.03;;;;;;;-6.77;82.62;95343.94;299395;196;63009;-58
2021/02/10 05:53:19;;;;;;;1.12;1.12;;;;;;;-6.79;84.13;95357.34;299395;287;63005;-58
2021/02/10 05:58:20;;;;;;;2.45;2.35;;;;;;;-6.40;83.14;95362.31;299395;424;63009;-56
2021/02/10 06:03:23;;;;;;;0.90;0.90;;;;;;;-6.90;82.93;95370.44;299395;202;63004;-57
2021/02/10 06:08:29;;;;;;;1.55;1.55;;;;;;;-6.83;84.54;95369.34;299395;509;63009;-58
2021/02/10 06:13:45;;;;;;;2.75;2.65;;;;;;;-7.00;82.48;95368.34;299395;238;63005;-59
2021/02/10 06:18:50;;;;;;;1.17;1.17;;;;;;;-6.64;83.47;95366.69;299395;603;63009;-58
2021/02/10 06:23:54;;;;;;;;;;;;;;;-6.91;83.41;95377.56;299996;983;6000;-58
2021/02/10 06:29:03;;;;;;;1.00;1.00;;;;;;;-6.72;83.51;95383.63;299422;612;63005;-58
2021/02/10 06:34:04;;;;;;;1.20;1.20;;;;;;;-6.70;83.57;95388.69;299395;196;63008;-57
2021/02/10 06:39:13;;;;;;;4.43;4.20;;;;;;;-7.13;83.93;95389.59;299395;622;63004;-57
2021/02/10 06:44:15;;;;;;;3.00;2.80;;;;;;;-6.62;82.27;95385.75;299395;834;63009;-59
2021/02/10 06:49:18;;;;;;;1.10;1.10;;;;;;;-6.90;82.04;95386.28;299395;729;63004;-57
2021/02/10 06:54:22;;;;;;;1.00;1.00;;;;;;;-7.00;83.56;95394.72;299395;209;63009;-56
2021/02/10 06:59:26;;;;;;;1.10;1.10;;;;;;;-6.88;84.13;95398.22;299417;826;63005;-59
2021/02/10 07:04:27;;;;;;;;;;;;;;;-6.77;83.16;95397.47;299996;983;6005;-58
2021/02/10 07:09:32;;;;;;;6.60;6.28;;;;;;;-6.64;81.81;95403.63;299400;208;63009;-57
2021/02/10 07:14:39;;;;;;;6.20;5.90;;;;;;;-6.90;82.70;95413.44;299395;235;63005;-57
2021/02/10 07:19:40;;;;;;;2.45;2.35;;;;;;;-6.96;83.27;95416.19;299395;231;63009;-58
2021/02/10 07:24:51;;;;;;;1.35;1.35;;;;;;;-6.96;83.66;95422.25;299395;206;63004;-55
2021/02/10 07:29:53;;;;;;;2.47;2.33;;;;;;;-6.78;83.46;95424.88;299395;240;63009;-63
2021/02/10 07:34:54;;;;;;;2.30;2.10;;;;;;;-6.87;83.57;95434.09;299395;229;63005;-61
2021/02/10 07:39:55;;;;;;;1.37;1.37;;;;;;;-6.87;83.45;95436.75;299395;228;63009;-58
2021/02/10 07:44:56;;;;;;;1.00;1.00;;;;;;;-6.87;84.01;95447.28;299395;257;63005;-59
2021/02/10 07:50:05;;;;;;;4.50;2.62;;;;;;;-6.79;84.45;95444.38;299395;212;63021;-58
2021/02/10 07:55:07;;;;;;;1.00;1.00;;;;;;;-6.83;82.87;95459.03;299395;231;63004;-56
2021/02/10 08:00:12;;;;;;;2.28;2.17;;;;;;;-6.66;82.95;95466.34;299395;227;63009;-59
2021/02/10 08:05:14;;;;;;;1.90;1.90;;;;;;;-6.96;83.70;95475.00;299395;213;63005;-60
2021/02/10 08:10:18;;;;;;;5.78;5.53;;;;;;;-6.74;83.16;95479.84;299395;221;63009;-59
2021/02/10 08:15:19;;;;;;;;;;;;;;;-6.88;84.20;95487.88;299996;982;6000;-58
2021/02/10 08:20:20;;;;;;;5.68;3.72;;;;;;;-6.45;83.12;95479.09;299400;500;63005;-58
2021/02/10 08:25:21;;;;;;;1.00;1.00;;;;;;;-6.77;82.55;95478.44;299395;225;63009;-58
2021/02/10 08:30:22;;;;;;;1.12;1.12;;;;;;;-6.53;83.37;95484.66;299395;270;63005;-58
2021/02/10 08:35:23;;;;;;;1.75;1.65;;;;;;;-6.60;82.15;95497.16;299395;386;63009;-59
2021/02/10 08:40:25;;;;;;;1.00;1.00;;;;;;;-6.54;83.78;95493.59;299395;202;63004;-59
2021/02/10 08:45:26;;;;;;;1.67;1.58;;;;;;;-6.44;82.82;95494.72;299395;615;63009;-59
2021/02/10 08:50:27;;;;;;;1.70;1.62;;;;;;;-6.22;80.67;95508.25;299395;740;63005;-60
2021/02/10 08:55:28;;;;;;;1.58;1.20;;;;;;;-6.31;82.16;95514.88;299395;199;63008;-59
2021/02/10 09:00:29;;;;;;;1.00;1.00;;;;;;;-6.50;82.23;95526.44;299395;199;63004;-59
2021/02/10 09:05:30;;;;;;;1.00;1.00;;;;;;;-6.56;81.42;95527.31;299395;264;63009;-59
2021/02/10 09:10:31;;;;;;;1.00;1.00;;;;;;;-6.43;82.01;95524.53;299395;567;63004;-59
2021/02/10 09:15:34;;;;;;;4.57;4.18;;;;;;;-5.87;80.44;95533.97;299395;216;63009;-59
2021/02/10 09:20:38;;;;;;;3.53;3.20;;;;;;;-6.04;81.22;95540.94;299395;212;63005;-59
2021/02/10 09:25:39;;;;;;;3.65;3.35;;;;;;;-5.99;79.59;95549.00;299417;202;63008;-58
2021/02/10 09:30:40;;;;;;;2.05;1.95;;;;;;;-6.11;80.70;95551.59;299395;302;63008;-58
2021/02/10 09:35:41;;;;;;;1.10;1.10;;;;;;;-6.55;81.83;95564.03;299395;302;63019;-57
2021/02/10 09:40:42;;;;;;;1.58;1.58;;;;;;;-6.09;81.30;95560.91;299395;326;63004;-60
2021/02/10 09:45:43;;;;;;;1.00;1.00;;;;;;;-6.20;80.73;95566.91;299395;207;63009;-59
2021/02/10 09:50:44;;;;;;;3.80;3.55;;;;;;;-6.09;80.38;95568.00;299395;223;63005;-58
2021/02/10 09:55:45;;;;;;;1.10;1.10;;;;;;;-6.11;80.29;95584.06;299395;676;63008;-58
2021/02/10 10:00:47;;;;;;;0.90;0.90;;;;;;;-5.91;80.65;95598.91;299395;608;63004;-59
2021/02/10 10:05:49;;;;;;;2.15;1.65;;;;;;;-5.89;81.27;95610.06;299395;678;63009;-59
2021/02/10 10:10:49;;;;;;;2.45;2.25;;;;;;;-6.16;79.56;95618.25;299394;930;63992;-58
2021/02/10 10:15:51;;;;;;;1.10;1.10;;;;;;;-6.23;81.34;95632.53;299395;443;63009;-58
2021/02/10 10:20:53;;;;;;;2.45;2.35;;;;;;;-6.24;81.86;95631.75;299395;202;63005;-57
2021/02/10 10:25:56;;;;;;;2.08;1.98;;;;;;;-6.38;81.58;95632.91;299395;625;63009;-59
2021/02/10 10:30:59;;;;;;;2.92;2.72;;;;;;;-6.40;82.33;95640.22;299395;512;63004;-58
2021/02/10 10:36:00;;;;;;;1.20;1.20;;;;;;;-6.48;83.36;95651.88;299395;208;63009;-55
2021/02/10 10:41:00;;;;;;;3.62;3.30;;;;;;;-6.33;83.29;95654.19;299395;204;63005;-56
2021/02/10 10:46:02;;;;;;;3.40;2.42;;;;;;;-6.43;82.97;95669.69;299395;207;63009;-59
2021/02/10 10:51:08;;;;;;;6.43;3.53;;;;;;;-6.50;83.39;95674.22;299395;617;63005;-58
2021/02/10 10:56:09;;;;;;;5.20;4.15;;;;;;;-6.51;82.64;95683.97;299395;329;63009;-70
2021/02/10 11:01:10;;;;;;;4.60;2.87;;;;;;;-6.57;82.05;95694.56;299395;495;63004;-54
2021/02/10 11:06:11;;;;;;;3.92;3.65;;;;;;;-6.56;81.99;95685.63;299395;229;63009;-55
2021/02/10 11:11:12;;;;;;;4.03;3.67;;;;;;;-6.68;80.15;95687.37;299395;223;63005;-56
2021/02/10 11:16:14;;;;;;;1.30;1.30;;;;;;;-6.65;80.74;95697.50;299395;532;63022;-56
2021/02/10 11:21:16;;;;;;;1.10;1.10;;;;;;;-6.65;81.34;95708.03;299395;216;63005;-58
2021/02/10 11:26:17;;;;;;;3.12;1.90;;;;;;;-6.65;80.71;95711.50;299395;216;63009;-58
2021/02/10 11:31:19;;;;;;;2.67;2.12;;;;;;;-6.78;80.93;95715.00;299395;226;63004;-58
2021/02/10 11:36:20;;;;;;;5.15;4.40;;;;;;;-6.81;82.16;95719.91;299395;257;63009;-65
2021/02/10 11:41:21;;;;;;;2.37;2.28;;;;;;;-6.72;82.04;95723.09;299395;212;63005;-58
2021/02/10 11:46:22;;;;;;;1.00;1.00;;;;;;;-6.71;82.10;95727.34;299395;212;63009;-59
2021/02/10 11:51:23;;;;;;;1.05;1.05;;;;;;;-6.60;82.03;95739.87;299395;261;63004;-64
2021/02/10 11:56:24;;;;;;;1.00;1.00;;;;;;;-6.58;82.14;95741.25;299395;972;63009;-58
2021/02/10 12:01:25;;;;;;;1.25;1.25;;;;;;;-6.59;81.50;95746.75;299395;201;63004;-57
2021/02/10 12:06:26;;;;;;;3.10;3.00;;;;;;;-6.63;81.46;95753.47;299395;214;63009;-56
2021/02/10 12:11:28;;;;;;;1.00;1.00;;;;;;;-6.49;81.07;95766.34;299395;258;63005;-58
2021/02/10 12:16:29;;;;;;;1.00;1.00;;;;;;;-6.60;80.85;95774.16;299395;203;63008;-59
2021/02/10 12:21:30;;;;;;;2.85;2.75;;;;;;;-6.63;79.53;95777.22;299395;518;63004;-57
2021/02/10 12:26:32;;;;;;;1.45;1.37;;;;;;;-6.48;81.07;95785.63;299395;434;63009;-60
2021/02/10 12:31:33;;;;;;;2.12;1.30;;;;;;;-6.25;79.63;95798.28;299395;213;63004;-59
2021/02/10 12:36:34;;;;;;;2.58;2.17;;;;;;;-6.39;79.41;95800.19;299394;517;64009;-57
2021/02/10 12:41:37;;;;;;;1.00;1.00;;;;;;;-6.51;80.85;95802.69;299395;307;63010;-58
2021/02/10 12:46:38;;;;;;;1.30;1.30;;;;;;;-6.39;80.98;95808.13;299395;219;63008;-59
2021/02/10 12:51:39;;;;;;;5.47;3.10;;;;;;;-6.45;80.71;95809.78;299395;281;63009;-59
2021/02/10 12:56:40;;;;;;;1.00;1.00;;;;;;;-6.56;80.88;95814.91;299395;605;63009;-58
2021/02/10 13:01:41;;;;;;;9.98;2.75;;;;;;;-6.43;80.28;95822.75;299392;730;64004;-58
2021/02/10 13:06:42;;;;;;;1.10;1.10;;;;;;;-6.52;80.62;95830.13;299395;693;63009;-59
2021/02/10 13:11:44;;;;;;;1.10;1.10;;;;;;;-6.48;80.12;95835.78;299395;218;63005;-58
2021/02/10 13:16:45;;;;;;;10.25;5.47;;;;;;;-6.62;80.45;95844.81;299391;211;65009;-58
2021/02/10 13:21:47;;;;;;;1.00;1.00;;;;;;;-6.61;80.71;95852.50;299395;196;63004;-58
2021/02/10 13:26:49;;;;;;;1.52;1.52;;;;;;;-6.67;79.78;95860.47;299395;205;63009;-58
2021/02/10 13:31:50;;;;;;;1.00;1.00;;;;;;;-6.79;80.69;95874.28;299395;543;63005;-59
2021/02/10 13:36:51;;;;;;;1.20;1.20;;;;;;;-6.84;80.93;95874.09;299395;223;63028;-56
2021/02/10 13:41:52;;;;;;;1.00;1.00;;;;;;;-6.90;81.32;95890.75;299395;227;63005;-58
2021/02/10 13:46:53;;;;;;;1.00;1.00;;;;;;;-6.90;80.46;95893.41;299395;252;63009;-57
2021/02/10 13:51:56;;;;;;;1.00;1.00;;;;;;;-6.72;80.75;95903.28;299395;202;63004;-58
2021/02/10 13:56:57;;;;;;;2.12;1.92;;;;;;;-6.74;80.70;95909.78;299395;223;63009;-59
2021/02/10 14:01:59;;;;;;;1.00;1.00;;;;;;;-7.03;81.09;95922.47;299395;378;63005;-58
2021/02/10 14:07:00;;;;;;;1.10;1.10;;;;;;;-6.98;81.01;95935.84;299395;812;63009;-57
2021/02/10 14:12:01;;;;;;;2.75;2.65;;;;;;;-6.85;82.20;95943.69;299395;206;63013;-58
2021/02/10 14:17:02;;;;;;;1.00;1.00;;;;;;;-7.00;81.83;95948.41;299395;202;63009;-57
2021/02/10 14:22:04;;;;;;;1.00;1.00;;;;;;;-6.95;81.00;95963.63;299395;196;63004;-58
2021/02/10 14:27:05;;;;;;;1.00;1.00;;;;;;;-6.97;81.16;95974.38;299395;221;63009;-58
2021/02/10 14:32:06;;;;;;;0.90;0.90;;;;;;;-6.98;80.73;95978.03;299395;286;63005;-57
2021/02/10 14:37:07;;;;;;;1.42;1.42;;;;;;;-6.96;80.27;95991.81;299395;270;63009;-58
2021/02/10 14:42:09;;;;;;;1.48;1.48;;;;;;;-6.74;79.46;96007.41;299395;264;63005;-58
2021/02/10 14:47:10;;;;;;;1.20;1.20;;;;;;;-7.03;80.02;96009.47;299395;222;63009;-59
2021/02/10 14:52:10;;;;;;;1.00;1.00;;;;;;;-7.35;82.15;96023.47;299395;377;63004;-57
2021/02/10 14:57:11;;;;;;;1.20;1.20;;;;;;;-7.29;81.62;96022.69;299395;233;63009;-58
2021/02/10 15:02:12;;;;;;;1.00;1.00;;;;;;;-7.25;82.22;96039.69;299395;233;63005;-58
2021/02/10 15:07:16;;;;;;;2.22;2.10;;;;;;;-7.38;82.14;96048.41;299395;241;63009;-57
2021/02/10 15:12:17;;;;;;;1.00;1.00;;;;;;;-7.32;82.26;96052.06;299395;202;63005;-59
2021/02/10 15:17:18;;;;;;;0.90;0.90;;;;;;;-7.41;83.36;96061.97;299396;732;63009;-59
2021/02/10 15:22:20;;;;;;;0.90;0.90;;;;;;;-7.19;82.20;96081.06;299396;523;63004;-60
2021/02/10 15:27:22;;;;;;;3.85;3.53;;;;;;;-7.31;82.86;96080.84;299396;283;63009;-59
2021/02/10 15:32:23;;;;;;;1.20;1.20;;;;;;;-7.52;83.19;96097.63;299396;206;63005;-60
2021/02/10 15:37:24;;;;;;;1.05;1.05;;;;;;;-7.68;83.49;96113.81;299396;332;63009;-62
2021/02/10 15:42:25;;;;;;;2.40;1.73;;;;;;;-7.31;83.48;96109.84;299396;220;63005;-58
2021/02/10 15:47:26;;;;;;;1.17;1.17;;;;;;;-7.35;82.56;96121.00;299396;220;63009;-60
2021/02/10 15:52:28;;;;;;;1.00;1.00;;;;;;;-7.64;82.65;96141.38;299396;229;63004;-61
2021/02/10 15:57:29;;;;;;;1.98;1.65;;;;;;;-7.73;82.86;96158.38;299396;262;63009;-58
2021/02/10 16:02:30;;;;;;;1.20;1.12;;;;;;;-7.89;82.85;96164.75;299397;255;63005;-58
2021/02/10 16:07:32;;;;;;;5.40;4.97;;;;;;;-7.87;82.97;96193.53;299397;206;63009;-59
2021/02/10 16:12:33;;;;;;;3.15;2.95;;;;;;;-7.89;83.45;96185.03;299396;216;63004;-58
2021/02/10 16:17:34;;;;;;;1.10;1.10;;;;;;;-7.94;83.89;96204.03;299396;210;63009;-57
2021/02/10 16:22:36;;;;;;;1.10;1.10;;;;;;;-7.77;83.20;96204.53;299396;216;63000;-59
2021/02/10 16:27:37;;;;;;;2.65;2.55;;;;;;;-7.86;84.88;96226.75;299396;267;63009;-58
2021/02/10 16:32:38;;;;;;;2.47;2.37;;;;;;;-7.83;84.39;96239.53;299396;241;63000;-57
2021/02/10 16:37:39;;;;;;;1.12;1.12;;;;;;;-7.89;84.29;96242.94;299396;231;63008;-58
2021/02/10 16:42:40;;;;;;;2.25;2.15;;;;;;;-7.79;84.11;96259.22;299396;276;63004;-59
2021/02/10 16:47:42;;;;;;;1.05;1.05;;;;;;;-7.78;84.09;96271.38;299396;209;63009;-58
2021/02/10 16:52:43;;;;;;;1.73;1.65;;;;;;;-7.75;83.80;96278.91;299396;302;63004;-58
2021/02/10 16:57:44;;;;;;;1.00;1.00;;;;;;;-8.01;83.41;96281.37;299397;199;63009;-58
2021/02/10 17:02:48;;;;;;;1.40;1.40;;;;;;;-8.05;84.14;96291.47;299395;248;63005;-58
2021/02/10 17:07:56;;;;;;;1.10;1.10;;;;;;;-8.11;83.57;96302.75;299377;262;125008;-57
2021/02/10 17:12:57;;;;;;;1.00;1.00;;;;;;;-7.92;82.87;96317.88;299395;279;63004;-58
2021/02/10 17:18:04;;;;;;;1.00;1.00;;;;;;;-7.98;82.93;96341.53;299395;221;63009;-58
2021/02/10 17:23:07;;;;;;;1.05;1.05;;;;;;;-7.86;83.29;96356.63;299395;196;63004;-58
2021/02/10 17:28:09;;;;;;;2.00;1.90;;;;;;;-7.89;82.66;96359.63;299395;221;63009;-58
2021/02/10 17:33:11;;;;;;;5.78;2.83;;;;;;;-8.16;81.99;96370.94;299395;223;63005;-57
2021/02/10 17:38:12;;;;;;;1.10;1.10;;;;;;;-8.00;82.97;96389.13;299395;225;63018;-59
2021/02/10 17:43:12;;;;;;;1.05;1.05;;;;;;;-7.99;82.92;96403.09;299395;229;63004;-58
2021/02/10 17:48:14;;;;;;;1.00;1.00;;;;;;;-8.12;81.90;96415.12;299395;229;63009;-58
2021/02/10 17:53:14;;;;;;;1.15;1.12;;;;;;;-7.87;81.93;96414.75;299395;222;63005;-59
2021/02/10 17:58:15;;;;;;;2.22;2.12;;;;;;;-7.86;80.24;96427.72;299395;259;63009;-58
2021/02/10 18:03:16;;;;;;;1.77;1.67;;;;;;;-8.00;81.17;96446.22;299395;238;63005;-58
2021/02/10 18:08:19;;;;;;;1.00;1.00;;;;;;;-8.06;80.52;96446.97;299395;203;63009;-59
2021/02/10 18:13:20;;;;;;;1.00;1.00;;;;;;;-8.15;80.31;96457.63;299395;269;63004;-59
2021/02/10 18:18:21;;;;;;;1.73;1.62;;;;;;;-7.94;80.64;96463.87;299395;214;63018;-58
2021/02/10 18:23:25;;;;;;;1.90;1.90;;;;;;;-7.92;80.00;96481.13;299395;202;63005;-59
2021/02/10 18:28:27;;;;;;;1.20;1.20;;;;;;;-7.92;79.11;96473.22;299417;210;63009;-58
2021/02/10 18:33:28;;;;;;;1.00;1.00;;;;;;;-7.80;79.06;96486.72;299395;203;63005;-57
2021/02/10 18:38:29;;;;;;;1.30;1.30;;;;;;;-7.84;79.43;96502.09;299395;208;63009;-58
2021/02/10 18:43:30;;;;;;;2.20;2.10;;;;;;;-8.08;78.85;96512.16;299395;238;63004;-60
2021/02/10 18:48:31;;;;;;;1.02;1.02;;;;;;;-8.21;78.67;96529.44;299395;203;63022;-57
2021/02/10 18:53:35;;;;;;;1.00;1.00;;;;;;;-8.00;79.70;96541.03;299395;435;63013;-59
2021/02/10 18:58:36;;;;;;;1.20;1.20;;;;;;;-7.78;80.12;96546.13;299417;229;63009;-60
2021/02/10 19:03:37;;;;;;;1.00;1.00;;;;;;;-7.87;79.71;96543.78;299395;216;63013;-60
2021/02/10 19:08:38;;;;;;;1.00;1.00;;;;;;;-7.97;80.29;96535.38;299395;228;63009;-58
2021/02/10 19:13:45;;;;;;;1.00;1.00;;;;;;;-7.97;80.04;96546.69;299395;307;63004;-58
2021/02/10 19:18:49;;;;;;;1.00;1.00;;;;;;;-7.65;79.06;96548.09;280133;230;17253172;-60
2021/02/10 19:23:51;;;;;;;1.00;1.00;;;;;;;-8.03;79.09;96565.91;299417;214;63005;-57
2021/02/10 19:28:55;;;;;;;1.00;1.00;;;;;;;-7.68;78.91;96577.44;299395;449;63008;-58
2021/02/10 19:33:56;;;;;;;1.20;1.10;;;;;;;-7.67;79.48;96589.59;299417;198;63004;-59
2021/02/10 19:38:57;;;;;;;1.00;1.00;;;;;;;-7.84;79.47;96593.44;299395;203;63009;-57
2021/02/10 19:43:58;;;;;;;1.00;1.00;;;;;;;-7.80;79.16;96597.34;299395;222;63004;-58
2021/02/10 19:48:59;;;;;;;1.00;1.00;;;;;;;-7.96;78.64;96608.09;299395;219;63021;-58
2021/02/10 19:54:01;;;;;;;1.00;1.00;;;;;;;-7.81;79.60;96614.16;299395;216;63005;-59
2021/02/10 19:59:01;;;;;;;1.00;1.00;;;;;;;-7.88;78.84;96623.78;299395;223;63008;-58
2021/02/10 20:04:03;;;;;;;1.00;1.00;;;;;;;-7.71;77.73;96630.50;299395;218;63004;-59
2021/02/10 20:09:04;;;;;;;1.00;1.00;;;;;;;-7.60;78.94;96643.16;299395;228;63009;-59
2021/02/10 20:14:05;;;;;;;1.00;1.00;;;;;;;-7.58;78.62;96649.06;299395;210;63005;-59
2021/02/10 20:19:06;;;;;;;1.08;1.08;;;;;;;-7.65;78.46;96653.47;299395;230;63009;-58
2021/02/10 20:24:07;;;;;;;1.10;1.10;;;;;;;-7.48;78.99;96665.41;299395;270;63005;-60
2021/02/10 20:29:09;;;;;;;1.00;1.00;;;;;;;-7.59;79.14;96671.16;299395;313;63009;-58
2021/02/10 20:34:11;;;;;;;4.05;2.17;;;;;;;-7.59;78.89;96681.69;299395;231;63004;-59
2021/02/10 20:39:17;;;;;;;2.03;1.92;;;;;;;-7.53;79.64;96693.31;299395;228;63009;-60
2021/02/10 20:44:19;;;;;;;1.02;1.02;;;;;;;-7.71;79.22;96698.97;299394;240;63995;-57
2021/02/10 20:49:20;;;;;;;4.57;2.75;;;;;;;-7.77;81.04;96721.59;299395;228;63009;-59
2021/02/10 20:54:24;;;;;;;1.10;1.10;;;;;;;-7.74;80.75;96735.41;299395;219;63005;-60
2021/02/10 20:59:26;;;;;;;1.00;1.00;;;;;;;-7.65;79.74;96737.78;299417;239;63009;-60
2021/02/10 21:04:27;;;;;;;1.08;1.08;;;;;;;-7.56;79.94;96749.81;299395;202;63004;-58
2021/02/10 21:09:28;;;;;;;2.55;2.35;;;;;;;-7.59;81.01;96744.91;299395;202;63018;-59
2021/02/10 21:14:29;;;;;;;1.00;1.00;;;;;;;-7.86;81.02;96741.13;299395;207;63012;-58
2021/02/10 21:19:30;;;;;;;1.40;1.30;;;;;;;-7.71;81.79;96756.94;299395;264;63009;-56
2021/02/10 21:24:31;;;;;;;1.00;1.00;;;;;;;-7.76;80.90;96775.09;299395;202;63005;-55
2021/02/10 21:29:32;;;;;;;1.10;1.10;;;;;;;-7.67;80.93;96775.84;299395;199;63009;-59
2021/02/10 21:34:34;;;;;;;1.10;1.10;;;;;;;-7.62;80.37;96787.44;299395;196;63004;-57
2021/02/10 21:39:35;;;;;;;1.12;1.12;;;;;;;-7.54;80.70;96800.53;299395;224;63009;-56
2021/02/10 21:44:36;;;;;;;1.00;1.00;;;;;;;-7.73;80.40;96816.06;299395;499;63005;-56
2021/02/10 21:49:39;;;;;;;1.00;1.00;;;;;;;-7.69;78.45;96818.16;299395;625;63009;-58
2021/02/10 21:54:44;;;;;;;1.00;1.00;;;;;;;-7.62;74.84;96824.31;299395;196;63005;-57
2021/02/10 21:59:45;;;;;;;1.00;1.00;;;;;;;-7.88;76.34;96830.03;299395;202;63009;-57
2021/02/10 22:04:46;;;;;;;1.00;1.00;;;;;;;-7.98;73.76;96849.72;299395;213;63004;-58
2021/02/10 22:09:47;;;;;;;1.00;1.00;;;;;;;-8.21;75.36;96858.44;299395;244;63009;-58
2021/02/10 22:14:48;;;;;;;1.20;1.20;;;;;;;-8.07;75.92;96867.41;299395;210;63005;-59
2021/02/10 22:19:50;;;;;;;1.02;1.02;;;;;;;-8.36;75.68;96889.19;299395;202;63008;-58
2021/02/10 22:24:54;;;;;;;1.10;1.10;;;;;;;-8.09;74.19;96905.44;299395;230;63004;-57
2021/02/10 22:29:56;;;;;;;1.10;1.10;;;;;;;-8.36;73.71;96893.66;299417;272;63009;-58
2021/02/10 22:34:57;;;;;;;1.00;1.00;;;;;;;-8.41;75.37;96917.84;299395;231;63004;-58
2021/02/10 22:40:03;;;;;;;1.00;1.00;;;;;;;-8.38;76.16;96938.56;299395;198;63022;-59
2021/02/10 22:45:09;;;;;;;1.05;1.05;;;;;;;-8.35;75.55;96943.47;299395;205;63005;-57
2021/02/10 22:50:10;;;;;;;1.00;1.00;;;;;;;-8.21;75.83;96942.69;299395;213;63008;-57
2021/02/10 22:55:14;;;;;;;1.20;1.20;;;;;;;-8.12;76.07;96948.72;299395;225;63004;-58
2021/02/10 23:00:24;;;;;;;1.10;1.10;;;;;;;-7.97;75.50;96967.22;299417;221;63009;-57
2021/02/10 23:05:26;;;;;;;1.10;1.10;;;;;;;-8.12;76.40;96990.84;299395;233;63004;-59
2021/02/10 23:10:29;;;;;;;1.42;1.42;;;;;;;-8.02;75.95;96988.81;299395;208;63021;-59
2021/02/10 23:15:30;;;;;;;1.20;1.20;;;;;;;-8.18;76.08;96996.78;299417;289;125009;-58
2021/02/10 23:20:31;;;;;;;1.30;1.30;;;;;;;-8.21;76.67;97007.66;299394;190;64008;-58
2021/02/10 23:25:34;;;;;;;1.50;1.50;;;;;;;-8.49;77.10;97015.25;299395;196;63011;-58
2021/02/10 23:30:36;;;;;;;1.10;1.10;;;;;;;-8.18;74.49;97021.31;299395;197;63009;-59
2021/02/10 23:35:38;;;;;;;1.05;1.05;;;;;;;-8.18;75.89;97031.84;299395;272;63005;-58
2021/02/10 23:40:41;;;;;;;1.00;1.00;;;;;;;-8.47;75.13;97029.03;299395;214;63009;-58